Time;durP1;ratioP1;P1;durP2;ratioP2;P2;SDS_P1;SDS_P2;PMS_P1;PMS_P2;Temp;Humidity;BMP_temperature;BMP_pressure;BME280_temperature;BME280_humidity;BME280_pressure;Samples;Min_cycle;Max_cycle;Signal;HPM_P1;HPM_P2
2023/11/16 00:01:49;;;;;;;2.15;1.00;;;13.10;91.60;;;;;;4998183;28;20076;-80
2023/11/16 00:04:15;;;;;;;3.00;1.35;;;13.10;91.60;;;;;;4997838;28;20029;-80
2023/11/16 00:06:41;;;;;;;2.13;1.10;;;13.10;91.60;;;;;;4997665;28;20033;-80
2023/11/16 00:09:07;;;;;;;3.10;1.10;;;13.10;91.60;;;;;;4997630;28;20034;-80
2023/11/16 00:11:32;;;;;;;2.33;1.00;;;13.20;91.60;;;;;;4997840;28;20030;-81
2023/11/16 00:13:58;;;;;;;2.55;1.02;;;13.20;91.50;;;;;;4997590;28;20558;-80
2023/11/16 00:16:25;;;;;;;1.58;0.82;;;13.20;91.40;;;;;;4997504;28;20030;-79
2023/11/16 00:18:53;;;;;;;3.10;0.93;;;13.20;91.30;;;;;;5014869;28;20029;-80
2023/11/16 00:21:19;;;;;;;1.40;0.90;;;13.30;91.30;;;;;;4996726;28;20022;-80
2023/11/16 00:23:44;;;;;;;3.10;1.20;;;13.30;91.30;;;;;;4997192;28;20034;-80
2023/11/16 00:26:11;;;;;;;1.98;1.00;;;13.30;91.20;;;;;;4997477;28;20113;-80
2023/11/16 00:28:37;;;;;;;2.30;1.02;;;13.30;91.20;;;;;;4997071;28;20022;-80
2023/11/16 00:31:03;;;;;;;2.13;0.98;;;13.30;91.30;;;;;;4996821;28;20491;-80
2023/11/16 00:33:29;;;;;;;1.80;0.95;;;13.20;91.30;;;;;;4997173;28;20033;-80
2023/11/16 00:35:58;;;;;;;2.40;1.05;;;13.30;91.30;;;;;;4997318;28;20052;-80
2023/11/16 00:38:27;;;;;;;2.45;0.93;;;13.30;91.30;;;;;;4996735;28;20022;-80
2023/11/16 00:40:55;;;;;;;3.38;1.10;;;13.20;91.40;;;;;;4996584;28;20033;-81
2023/11/16 00:43:20;;;;;;;3.17;1.08;;;13.20;91.40;;;;;;4996891;28;20400;-81
2023/11/16 00:45:46;;;;;;;2.55;1.30;;;13.20;91.40;;;;;;4997034;28;20029;-80
2023/11/16 00:48:12;;;;;;;2.35;1.00;;;13.20;91.50;;;;;;4996827;28;20057;-80
2023/11/16 00:50:37;;;;;;;1.70;1.02;;;13.20;91.50;;;;;;4996942;28;20022;-81
2023/11/16 00:53:03;;;;;;;2.97;1.20;;;13.20;91.50;;;;;;4996784;28;20063;-82
2023/11/16 00:55:31;;;;;;;2.20;1.10;;;13.20;91.50;;;;;;4996736;28;20065;-79
2023/11/16 00:57:57;;;;;;;2.95;1.23;;;13.20;91.50;;;;;;4996570;28;20040;-81
2023/11/16 01:00:26;;;;;;;2.40;1.08;;;13.20;91.50;;;;;;4996595;28;20026;-81
2023/11/16 01:02:52;;;;;;;4.25;1.30;;;13.10;91.50;;;;;;5014283;28;20018;-81
2023/11/16 01:05:17;;;;;;;3.47;1.35;;;13.20;91.60;;;;;;4996762;28;20028;-81
2023/11/16 01:07:44;;;;;;;4.00;1.20;;;13.20;91.60;;;;;;5013841;28;20471;-80
2023/11/16 01:10:15;;;;;;;2.38;1.23;;;13.10;91.60;;;;;;4996355;28;20027;-80
2023/11/16 01:12:43;;;;;;;3.10;1.40;;;13.20;91.60;;;;;;4996555;28;20037;-80
2023/11/16 01:15:10;;;;;;;2.63;1.10;;;13.20;91.60;;;;;;4996408;28;20105;-81
2023/11/16 01:17:38;;;;;;;3.33;1.00;;;13.10;91.60;;;;;;4995946;28;20026;-80
2023/11/16 01:20:06;;;;;;;2.45;1.10;;;13.10;91.60;;;;;;4986422;28;20034;-80
2023/11/16 01:22:40;;;;;;;3.28;1.10;;;13.10;91.60;;;;;;4976561;28;20022;-80
2023/11/16 01:25:14;;;;;;;2.58;1.00;;;13.10;91.60;;;;;;4994206;28;20555;-80
2023/11/16 01:27:43;;;;;;;2.03;1.00;;;13.10;91.60;;;;;;4976504;28;20147;-80
2023/11/16 01:30:10;;;;;;;2.60;1.20;;;13.10;91.60;;;;;;4994117;28;20030;-80
2023/11/16 01:32:35;;;;;;;2.15;1.10;;;13.10;91.60;;;;;;4975798;28;20036;-80
2023/11/16 01:35:03;;;;;;;2.33;1.10;;;13.10;91.60;;;;;;4976636;28;20022;-80
2023/11/16 01:37:29;;;;;;;3.03;1.10;;;13.10;91.60;;;;;;4976156;28;20026;-80
2023/11/16 01:39:54;;;;;;;2.97;1.13;;;13.10;91.60;;;;;;4983051;28;20038;-80
2023/11/16 01:42:20;;;;;;;2.50;1.10;;;13.10;91.60;;;;;;4995810;28;20117;-80
2023/11/16 01:44:46;;;;;;;2.45;1.10;;;13.10;91.60;;;;;;4995914;28;20503;-81
2023/11/16 01:47:14;;;;;;;1.92;1.00;;;13.10;91.60;;;;;;4995595;28;20025;-80
2023/11/16 01:49:40;;;;;;;2.30;0.98;;;13.10;91.60;;;;;;4995815;28;20032;-81
2023/11/16 01:52:06;;;;;;;1.63;0.90;;;13.20;91.60;;;;;;4995979;28;20036;-80
2023/11/16 01:54:33;;;;;;;3.30;1.10;;;13.20;91.50;;;;;;4995852;28;20034;-80
2023/11/16 01:57:00;;;;;;;2.75;1.10;;;13.20;91.50;;;;;;5012980;28;20099;-79
2023/11/16 01:59:27;;;;;;;1.95;1.00;;;13.20;91.40;;;;;;4995318;28;20030;-81
2023/11/16 02:01:54;;;;;;;2.28;1.10;;;13.20;91.30;;;;;;4995469;28;20080;-80
2023/11/16 02:04:22;;;;;;;2.78;1.20;;;13.20;91.20;;;;;;4995434;28;20026;-80
2023/11/16 02:06:48;;;;;;;3.30;1.45;;;13.30;91.20;;;;;;4995382;28;20021;-81
2023/11/16 02:09:15;;;;;;;2.17;1.15;;;13.30;91.20;;;;;;4995467;28;20061;-80
2023/11/16 02:11:40;;;;;;;2.50;1.17;;;13.30;91.20;;;;;;4995458;28;20025;-80
2023/11/16 02:14:06;;;;;;;2.92;1.10;;;13.30;91.20;;;;;;5013152;28;20029;-81
2023/11/16 02:16:32;;;;;;;2.47;1.25;;;13.30;91.20;;;;;;4995248;28;20025;-80
2023/11/16 02:19:04;;;;;;;1.85;0.95;;;13.30;91.30;;;;;;4995297;28;20443;-80
2023/11/16 02:21:30;;;;;;;3.33;1.40;;;13.30;91.30;;;;;;4995281;28;20029;-80
2023/11/16 02:23:56;;;;;;;2.47;0.98;;;13.20;91.30;;;;;;4995252;28;20507;-81
2023/11/16 02:26:21;;;;;;;3.42;1.20;;;13.20;91.30;;;;;;4995346;28;20026;-82
2023/11/16 02:28:47;;;;;;;2.40;1.10;;;13.20;91.40;;;;;;4995079;28;20026;-80
2023/11/16 02:31:18;;;;;;;2.30;1.00;;;13.20;91.40;;;;;;5012775;28;20025;-80
2023/11/16 02:33:43;;;;;;;2.30;1.00;;;13.20;91.50;;;;;;4995229;28;20053;-81
2023/11/16 02:36:10;;;;;;;2.58;1.05;;;13.20;91.50;;;;;;4995069;28;20060;-80
2023/11/16 02:38:36;;;;;;;2.42;1.10;;;13.20;91.50;;;;;;4994573;28;20056;-81
2023/11/16 02:41:05;;;;;;;2.35;1.00;;;13.20;91.50;;;;;;4995037;28;20026;-81
2023/11/16 02:43:31;;;;;;;2.92;1.02;;;13.20;91.50;;;;;;4997391;28;20029;-80
2023/11/16 02:45:56;;;;;;;2.05;1.08;;;13.20;91.50;;;;;;5019105;28;20415;-80
2023/11/16 02:48:22;;;;;;;2.88;1.00;;;13.10;91.50;;;;;;5018975;28;20022;-80
2023/11/16 02:50:47;;;;;;;2.38;1.33;;;13.10;91.50;;;;;;5001474;28;20793;-81
2023/11/16 02:53:13;;;;;;;1.77;1.10;;;13.20;91.60;;;;;;5001594;28;20033;-80
2023/11/16 02:55:39;;;;;;;2.75;1.10;;;13.10;91.60;;;;;;5001515;28;20121;-81
2023/11/16 02:58:06;;;;;;;3.22;1.20;;;13.10;91.60;;;;;;5001301;28;20022;-80
2023/11/16 03:00:32;;;;;;;3.58;1.10;;;13.10;91.60;;;;;;5001460;28;20018;-80
2023/11/16 03:02:58;;;;;;;1.85;1.00;;;13.10;91.60;;;;;;5001591;28;20503;-81
2023/11/16 03:05:24;;;;;;;3.53;1.10;;;13.20;91.60;;;;;;5001380;28;20029;-81
2023/11/16 03:07:51;;;;;;;2.22;1.00;;;13.10;91.60;;;;;;5001147;28;20459;-81
2023/11/16 03:10:16;;;;;;;3.25;0.88;;;13.10;91.60;;;;;;5001320;28;20030;-80
2023/11/16 03:12:42;;;;;;;5.20;1.30;;;13.10;91.60;;;;;;5001375;28;20029;-81
2023/11/16 03:15:09;;;;;;;2.40;1.10;;;13.10;91.60;;;;;;4988155;28;20126;-80
2023/11/16 03:17:38;;;;;;;2.42;1.00;;;13.10;91.60;;;;;;4998706;28;20187;-80
2023/11/16 03:20:04;;;;;;;1.95;1.00;;;13.10;91.60;;;;;;4977923;28;20535;-80
2023/11/16 03:22:30;;;;;;;1.90;0.90;;;13.10;91.60;;;;;;4954417;28;20062;-81
2023/11/16 03:24:56;;;;;;;2.25;0.80;;;13.10;91.60;;;;;;4962165;28;20027;-81
2023/11/16 03:27:21;;;;;;;2.92;1.25;;;13.10;91.60;;;;;;4962126;28;20452;-80
2023/11/16 03:29:48;;;;;;;2.05;0.95;;;13.10;91.60;;;;;;4962366;28;20448;-80
2023/11/16 03:32:13;;;;;;;1.00;0.80;;;13.10;91.60;;;;;;4979640;28;20476;-79
2023/11/16 03:34:39;;;;;;;1.95;0.90;;;13.10;91.60;;;;;;4962315;28;20031;-80
2023/11/16 03:37:05;;;;;;;1.48;0.90;;;13.10;91.50;;;;;;4961989;28;20027;-80
2023/11/16 03:39:34;;;;;;;2.08;1.20;;;13.20;91.60;;;;;;4962013;28;20027;-80
2023/11/16 03:42:03;;;;;;;2.08;1.13;;;13.20;91.50;;;;;;4961962;28;20027;-80
2023/11/16 03:44:29;;;;;;;2.15;0.93;;;13.20;91.40;;;;;;4962255;28;20558;-80
2023/11/16 03:46:55;;;;;;;3.38;1.10;;;13.20;91.30;;;;;;4962316;28;20134;-80
2023/11/16 03:49:22;;;;;;;2.25;1.00;;;13.30;91.30;;;;;;4962223;28;20031;-81
2023/11/16 03:51:48;;;;;;;2.10;0.95;;;13.30;91.30;;;;;;4962423;28;20033;-81
2023/11/16 03:54:15;;;;;;;2.53;1.08;;;13.30;91.20;;;;;;4979931;28;20490;-80
2023/11/16 03:56:41;;;;;;;1.40;0.88;;;13.30;91.20;;;;;;4958154;28;20503;-80
2023/11/16 03:59:06;;;;;;;2.85;1.10;;;13.30;91.30;;;;;;4975558;28;20034;-81
2023/11/16 04:01:36;;;;;;;2.08;1.02;;;13.30;91.30;;;;;;4958992;28;20019;-80
2023/11/16 04:04:01;;;;;;;1.20;0.85;;;13.20;91.30;;;;;;4959097;28;20019;-80
2023/11/16 04:06:29;;;;;;;2.38;1.15;;;13.20;91.30;;;;;;4959135;28;20022;-79
2023/11/16 04:08:56;;;;;;;2.45;1.00;;;13.20;91.30;;;;;;4975136;28;20023;-80
2023/11/16 04:11:22;;;;;;;2.38;0.88;;;13.20;91.40;;;;;;4959115;28;20050;-80
2023/11/16 04:13:48;;;;;;;2.70;1.00;;;13.20;91.40;;;;;;4958884;28;20022;-81
2023/11/16 04:16:23;;;;;;;2.67;1.00;;;13.20;91.40;;;;;;4958779;28;20030;-80
2023/11/16 04:18:50;;;;;;;2.95;0.95;;;13.20;91.50;;;;;;4974701;28;20062;-80
2023/11/16 04:21:19;;;;;;;2.47;1.00;;;13.20;91.50;;;;;;4959032;28;20072;-80
2023/11/16 04:23:56;;;;;;;2.72;0.98;;;13.10;91.50;;;;;;4975878;28;20031;-80
2023/11/16 04:26:23;;;;;;;1.95;1.00;;;13.10;91.50;;;;;;4958760;28;20045;-82
2023/11/16 04:28:51;;;;;;;2.00;0.98;;;13.10;91.50;;;;;;4958354;28;20102;-80
2023/11/16 04:31:19;;;;;;;3.10;0.90;;;13.10;91.50;;;;;;4958404;28;20019;-81
2023/11/16 04:33:47;;;;;;;2.45;0.90;;;13.10;91.50;;;;;;4958373;28;20019;-80
2023/11/16 04:36:28;;;;;;;2.10;0.95;;;13.10;91.50;;;;;;4958457;28;20105;-80
2023/11/16 04:38:57;;;;;;;2.45;0.98;;;13.10;91.60;;;;;;4958162;28;20030;-81
2023/11/16 04:41:27;;;;;;;1.58;0.88;;;13.20;91.60;;;;;;4958489;28;20429;-81
2023/11/16 04:43:56;;;;;;;2.65;0.93;;;13.10;91.60;;;;;;4975643;28;20035;-80
2023/11/16 04:46:25;;;;;;;2.30;1.13;;;13.10;91.60;;;;;;4975521;28;20018;-80
2023/11/16 04:48:53;;;;;;;1.95;1.00;;;13.10;91.60;;;;;;4958153;28;20118;-83
2023/11/16 04:51:20;;;;;;;2.08;0.80;;;13.10;91.60;;;;;;4974070;28;20015;-80
2023/11/16 04:53:50;;;;;;;1.30;0.82;;;13.20;91.60;;;;;;4955911;28;20097;-83
2023/11/16 04:56:21;;;;;;;1.55;0.90;;;13.10;91.60;;;;;;4979252;28;20034;-81
2023/11/16 04:59:17;;;;;;;2.67;1.10;;;13.00;91.60;;;;;;4930946;29;20031;-82
2023/11/16 05:02:02;;;;;;;2.67;0.90;;;13.10;91.60;;;;;;4931936;29;20047;-82
2023/11/16 05:08:06;;;;;;;2.20;0.88;;;13.10;91.60;;;;;;4931972;29;20099;-81
2023/11/16 05:21:30;;;;;;;1.50;0.75;;;13.10;91.60;;;;;;4926509;29;20048;-81
2023/11/16 05:27:27;;;;;;;1.10;0.80;;;13.10;91.60;;;;;;4991917;28;20119;-81
2023/11/16 05:29:58;;;;;;;1.90;0.80;;;13.30;91.50;;;;;;4973227;28;20464;-82
2023/11/16 05:33:17;;;;;;;1.70;0.80;;;13.20;91.40;;;;;;4991766;28;20054;-81
2023/11/16 05:36:08;;;;;;;2.42;0.90;;;13.30;91.30;;;;;;4975236;28;20037;-81
2023/11/16 05:42:06;;;;;;;2.50;0.88;;;13.40;91.30;;;;;;4989928;28;20045;-80
2023/11/16 05:44:32;;;;;;;1.33;0.80;;;13.30;91.30;;;;;;4989617;28;20794;-82
2023/11/16 05:47:26;;;;;;;2.15;0.90;;;13.20;91.30;;;;;;4991172;28;20034;-81
2023/11/16 05:50:15;;;;;;;1.13;0.73;;;13.20;91.30;;;;;;4989284;28;20348;-79
2023/11/16 05:53:09;;;;;;;2.65;1.02;;;13.20;91.30;;;;;;4990167;28;20028;-81
2023/11/16 05:56:23;;;;;;;2.05;0.93;;;13.20;91.40;;;;;;4988752;28;20129;-81
2023/11/16 05:58:52;;;;;;;2.40;0.80;;;13.10;91.40;;;;;;4987372;28;20018;-80
2023/11/16 06:01:25;;;;;;;1.45;0.70;;;13.20;91.40;;;;;;4989969;28;20765;-81
2023/11/16 06:07:22;;;;;;;2.15;0.80;;;13.10;91.50;;;;;;4991979;28;20029;-80
2023/11/16 06:10:05;;;;;;;2.58;1.10;;;13.10;91.50;;;;;;4989048;28;20026;-81
2023/11/16 06:13:02;;;;;;;;;;;;;;;;;;;;;
2023/11/16 06:22:12;;;;;;;1.95;0.82;;;13.10;91.60;;;;;;4911497;29;20181;-81
2023/11/16 06:25:01;;;;;;;2.63;0.90;;;13.10;91.60;;;;;;4895163;29;20052;-80
2023/11/16 06:34:26;;;;;;;1.88;0.88;;;13.30;91.70;;;;;;4989134;28;20036;-81
2023/11/16 06:37:18;;;;;;;1.30;0.70;;;13.10;91.60;;;;;;4969759;28;20038;-81
2023/11/16 06:39:53;;;;;;;2.28;0.80;;;13.10;91.60;;;;;;4943610;28;20385;-81
2023/11/16 06:42:24;;;;;;;1.63;0.80;;;13.10;91.60;;;;;;4953165;28;20058;-81
2023/11/16 06:48:04;;;;;;;2.67;0.90;;;13.70;91.80;;;;;;4970562;28;20078;-80
2023/11/16 06:50:45;;;;;;;1.65;0.82;;;13.00;91.60;;;;;;4953279;28;20138;-81
2023/11/16 07:00:09;;;;;;;2.80;0.88;;;13.20;91.70;;;;;;4970133;28;20622;-79
2023/11/16 07:02:53;;;;;;;1.77;0.77;;;13.10;91.60;;;;;;4962159;28;20428;-81
2023/11/16 07:05:19;;;;;;;1.85;0.70;;;13.20;91.70;;;;;;4950992;29;20024;-81
2023/11/16 07:07:45;;;;;;;2.25;0.82;;;13.10;91.60;;;;;;4972672;28;20094;-80
2023/11/16 07:10:11;;;;;;;2.92;0.80;;;13.10;91.60;;;;;;4973628;28;20513;-80
2023/11/16 07:12:41;;;;;;;3.13;0.90;;;13.10;91.60;;;;;;4956220;28;20034;-80
2023/11/16 07:15:08;;;;;;;3.05;0.88;;;13.10;91.50;;;;;;4973524;28;20022;-81
2023/11/16 07:17:33;;;;;;;3.13;0.90;;;13.20;91.50;;;;;;4955851;28;20497;-81
2023/11/16 07:19:59;;;;;;;2.03;0.75;;;13.20;91.40;;;;;;4956035;28;20031;-80
2023/11/16 07:22:25;;;;;;;1.52;0.80;;;13.20;91.30;;;;;;4956060;28;20520;-81
2023/11/16 07:24:51;;;;;;;1.10;0.70;;;13.20;91.30;;;;;;4973393;28;20482;-81
2023/11/16 07:27:17;;;;;;;1.88;0.90;;;13.30;91.30;;;;;;4956022;28;20154;-80
2023/11/16 07:29:45;;;;;;;1.85;0.70;;;13.30;91.30;;;;;;4955940;28;20031;-80
2023/11/16 07:32:11;;;;;;;2.58;0.90;;;13.30;91.20;;;;;;4959359;28;20371;-81
2023/11/16 07:34:41;;;;;;;1.92;0.80;;;13.30;91.20;;;;;;4959900;28;20078;-80
2023/11/16 07:37:07;;;;;;;1.02;0.60;;;13.30;91.10;;;;;;4960430;28;20113;-81
2023/11/16 07:39:32;;;;;;;1.55;0.73;;;13.40;91.10;;;;;;4960095;28;20138;-81
2023/11/16 07:41:59;;;;;;;1.67;0.85;;;13.40;91.10;;;;;;4960462;28;20031;-81
2023/11/16 07:44:25;;;;;;;3.28;1.00;;;13.40;91.10;;;;;;4960551;28;20040;-80
2023/11/16 07:46:50;;;;;;;1.75;0.80;;;13.40;91.10;;;;;;4960508;28;20433;-81
2023/11/16 07:49:17;;;;;;;1.80;0.70;;;13.40;91.10;;;;;;4977626;28;20022;-80
2023/11/16 07:51:43;;;;;;;3.03;0.82;;;13.40;91.20;;;;;;4977775;28;20027;-81
2023/11/16 07:54:11;;;;;;;1.27;0.80;;;13.30;91.20;;;;;;4959852;28;20477;-82
2023/11/16 07:56:38;;;;;;;1.65;0.88;;;13.30;91.20;;;;;;4960163;28;20106;-82
2023/11/16 07:59:03;;;;;;;2.08;0.80;;;13.30;91.20;;;;;;4959430;28;20058;-80
2023/11/16 08:01:40;;;;;;;0.90;0.80;;;13.30;91.30;;;;;;4977536;28;20065;-81
2023/11/16 08:04:06;;;;;;;1.08;0.80;;;13.30;91.30;;;;;;4977007;28;20027;-81
2023/11/16 08:06:35;;;;;;;1.38;0.70;;;13.30;91.30;;;;;;4960080;28;20077;-82
2023/11/16 08:09:01;;;;;;;2.72;0.82;;;13.40;91.30;;;;;;4977553;28;20101;-81
2023/11/16 08:11:26;;;;;;;1.05;0.70;;;13.40;91.20;;;;;;4960352;28;20057;-81
2023/11/16 08:13:52;;;;;;;1.42;0.70;;;13.50;91.10;;;;;;4960147;28;20023;-81
2023/11/16 08:16:21;;;;;;;1.55;0.70;;;13.50;91.00;;;;;;4960623;28;20027;-81
2023/11/16 08:18:48;;;;;;;2.33;0.70;;;13.60;91.00;;;;;;4960559;28;20030;-81
2023/11/16 08:21:14;;;;;;;1.67;0.80;;;13.60;91.00;;;;;;4960527;28;20027;-82
2023/11/16 08:23:43;;;;;;;1.58;0.70;;;13.70;90.90;;;;;;4959985;28;20027;-82
2023/11/16 08:26:11;;;;;;;1.00;0.63;;;13.70;90.80;;;;;;4960004;28;20496;-80
2023/11/16 08:28:37;;;;;;;1.23;0.70;;;13.70;90.80;;;;;;4977198;28;20121;-81
2023/11/16 08:31:04;;;;;;;1.88;0.65;;;13.70;90.70;;;;;;4959907;28;20457;-81
2023/11/16 08:33:29;;;;;;;1.65;0.70;;;13.80;90.80;;;;;;4959296;28;20041;-81
2023/11/16 08:35:57;;;;;;;1.10;0.60;;;13.80;90.70;;;;;;4959596;28;20429;-83
2023/11/16 08:38:25;;;;;;;1.75;0.82;;;13.90;90.80;;;;;;4959227;28;20033;-81
2023/11/16 08:40:52;;;;;;;1.10;0.60;;;13.90;90.80;;;;;;4976723;28;20512;-81
2023/11/16 08:43:18;;;;;;;1.55;0.68;;;13.90;90.70;;;;;;4959113;28;20445;-80
2023/11/16 08:45:45;;;;;;;1.33;0.60;;;13.90;90.60;;;;;;4959319;28;20027;-81
2023/11/16 08:48:16;;;;;;;0.88;0.60;;;13.90;90.60;;;;;;4958446;28;20023;-81
2023/11/16 08:50:43;;;;;;;2.53;0.67;;;13.90;90.70;;;;;;4958844;28;20058;-80
2023/11/16 08:53:09;;;;;;;1.75;0.68;;;13.90;90.70;;;;;;4958985;28;20027;-81
2023/11/16 08:55:35;;;;;;;1.45;0.65;;;13.90;90.70;;;;;;4958973;28;20031;-80
2023/11/16 08:58:01;;;;;;;2.00;0.70;;;14.00;90.50;;;;;;4958524;28;20154;-81
2023/11/16 09:00:47;;;;;;;1.95;0.70;;;14.00;90.50;;;;;;4958531;28;20118;-82
2023/11/16 09:03:13;;;;;;;1.27;0.55;;;14.10;90.40;;;;;;4958423;28;20034;-81
2023/11/16 09:05:41;;;;;;;1.55;0.60;;;14.20;90.30;;;;;;4957988;28;20023;-81
2023/11/16 09:08:10;;;;;;;1.95;0.70;;;14.20;90.20;;;;;;4958051;28;20019;-81
2023/11/16 09:10:36;;;;;;;0.68;0.50;;;14.20;90.10;;;;;;4958336;28;20493;-81
2023/11/16 09:13:03;;;;;;;2.20;0.85;;;14.30;90.10;;;;;;4957932;28;20042;-81
2023/11/16 09:15:29;;;;;;;0.30;0.30;;;14.20;90.10;;;;;;4958052;28;20033;-81
2023/11/16 09:17:55;;;;;;;1.67;0.70;;;14.20;90.10;;;;;;4975475;28;20030;-81
2023/11/16 09:20:24;;;;;;;1.00;0.60;;;14.20;90.20;;;;;;4959956;28;20481;-81
2023/11/16 09:22:50;;;;;;;1.00;0.70;;;14.10;90.20;;;;;;4976334;28;20030;-82
2023/11/16 09:25:20;;;;;;;0.93;0.60;;;14.10;90.30;;;;;;4960095;28;20026;-81
2023/11/16 09:27:58;;;;;;;1.15;0.70;;;14.00;90.40;;;;;;4959868;28;20051;-81
2023/11/16 09:30:27;;;;;;;1.77;0.60;;;13.90;90.50;;;;;;4960014;28;20089;-81
2023/11/16 09:32:54;;;;;;;1.52;0.65;;;13.90;90.60;;;;;;4959841;28;20081;-81
2023/11/16 09:35:23;;;;;;;1.23;0.55;;;13.90;90.60;;;;;;4959441;28;20412;-81
2023/11/16 09:37:49;;;;;;;1.20;0.50;;;13.80;90.70;;;;;;4960041;28;20023;-82
2023/11/16 09:40:21;;;;;;;1.20;0.60;;;13.80;90.70;;;;;;4959431;28;20022;-81
2023/11/16 09:42:48;;;;;;;0.55;0.50;;;13.80;90.70;;;;;;4960061;28;20049;-81
2023/11/16 09:45:20;;;;;;;1.23;0.50;;;13.70;90.80;;;;;;4959895;28;20496;-81
2023/11/16 09:47:49;;;;;;;;;;;13.70;90.80;;;;;;4960090;28;20026;-81
2023/11/16 09:50:15;;;;;;;1.13;0.60;;;13.70;90.80;;;;;;4959161;28;20380;-81
2023/11/16 09:52:41;;;;;;;1.17;0.57;;;13.70;90.80;;;;;;4959725;28;20035;-81
2023/11/16 09:55:10;;;;;;;0.63;0.55;;;13.80;90.80;;;;;;4959413;28;20027;-81
2023/11/16 09:57:37;;;;;;;0.98;0.60;;;13.80;90.80;;;;;;4975715;28;20038;-81
2023/11/16 10:00:14;;;;;;;1.13;0.60;;;13.90;90.70;;;;;;4959873;28;20433;-81
2023/11/16 10:02:43;;;;;;;1.42;0.60;;;13.90;90.70;;;;;;4976754;28;20023;-81
2023/11/16 10:05:26;;;;;;;0.90;0.60;;;13.90;90.60;;;;;;4959158;28;20030;-81
2023/11/16 10:07:53;;;;;;;0.73;0.40;;;13.90;90.60;;;;;;4959087;28;20027;-81
2023/11/16 10:10:22;;;;;;;2.45;0.57;;;13.90;90.60;;;;;;4959372;28;20038;-80
2023/11/16 10:12:50;;;;;;;1.20;0.60;;;13.90;90.60;;;;;;4959658;28;20440;-82
2023/11/16 10:15:23;;;;;;;1.15;0.60;;;13.90;90.60;;;;;;4959259;28;20031;-81
2023/11/16 10:17:52;;;;;;;1.48;0.73;;;13.90;90.60;;;;;;4976369;28;20027;-81
2023/11/16 10:20:20;;;;;;;2.20;0.68;;;13.90;90.60;;;;;;4959153;28;20054;-81
2023/11/16 10:22:46;;;;;;;1.67;0.60;;;13.90;90.60;;;;;;4976430;28;20102;-82
2023/11/16 10:25:15;;;;;;;0.93;0.50;;;13.90;90.60;;;;;;4958779;28;20027;-81
2023/11/16 10:27:41;;;;;;;0.70;0.60;;;13.90;90.60;;;;;;4958968;28;20029;-82
2023/11/16 10:30:12;;;;;;;0.88;0.50;;;13.90;90.60;;;;;;4958676;28;20034;-81
2023/11/16 10:32:47;;;;;;;1.52;0.57;;;13.90;90.70;;;;;;4976476;28;20109;-81
2023/11/16 10:35:14;;;;;;;0.98;0.55;;;13.90;90.70;;;;;;4958373;28;20061;-83
2023/11/16 10:37:44;;;;;;;0.95;0.60;;;13.90;90.60;;;;;;4958312;28;20022;-82
2023/11/16 10:40:11;;;;;;;1.15;0.50;;;13.90;90.60;;;;;;4958702;28;20026;-81
2023/11/16 10:42:45;;;;;;;1.25;0.55;;;13.90;90.50;;;;;;4976113;28;20030;-81
2023/11/16 10:45:14;;;;;;;1.08;0.50;;;13.90;90.50;;;;;;4958781;28;20110;-81
2023/11/16 10:47:46;;;;;;;1.08;0.50;;;14.00;90.50;;;;;;4958742;28;20054;-81
2023/11/16 10:50:15;;;;;;;1.33;0.60;;;14.00;90.70;;;;;;4976049;28;20026;-82
2023/11/16 10:52:42;;;;;;;1.00;0.50;;;14.00;90.50;;;;;;4958838;28;20031;-81
2023/11/16 10:55:16;;;;;;;1.02;0.63;;;13.90;90.50;;;;;;4958539;28;20027;-81
2023/11/16 10:57:48;;;;;;;0.85;0.40;;;13.90;90.50;;;;;;4958428;28;20037;-83
2023/11/16 11:00:18;;;;;;;0.95;0.57;;;13.90;90.60;;;;;;4958449;28;20628;-82
2023/11/16 11:02:47;;;;;;;1.05;0.70;;;13.90;90.60;;;;;;4957821;28;20038;-82
2023/11/16 11:05:15;;;;;;;0.60;0.55;;;13.90;90.70;;;;;;4976450;28;20054;-82
2023/11/16 11:07:54;;;;;;;2.25;0.80;;;13.80;90.70;;;;;;4978145;28;20054;-82
2023/11/16 11:10:26;;;;;;;1.02;0.43;;;13.80;90.70;;;;;;4979775;28;20401;-82
2023/11/16 11:12:51;;;;;;;1.48;0.63;;;13.80;90.70;;;;;;4979275;28;20106;-81
2023/11/16 11:15:25;;;;;;;0.80;0.50;;;13.80;90.70;;;;;;4978367;28;20552;-82
2023/11/16 11:17:53;;;;;;;1.25;0.60;;;13.80;90.80;;;;;;4978028;28;20050;-81
2023/11/16 11:20:33;;;;;;;1.45;0.57;;;13.80;90.80;;;;;;4978315;28;20070;-82
2023/11/16 11:23:13;;;;;;;1.05;0.50;;;13.70;90.80;;;;;;4979827;28;20022;-81
2023/11/16 11:25:41;;;;;;;0.77;0.60;;;13.70;90.80;;;;;;4978952;28;20138;-81
2023/11/16 11:28:11;;;;;;;0.32;0.30;;;13.80;90.80;;;;;;4978251;28;20023;-81
2023/11/16 11:30:54;;;;;;;0.85;0.60;;;13.80;90.80;;;;;;4978430;28;20054;-81
2023/11/16 11:33:35;;;;;;;0.70;0.50;;;13.70;90.80;;;;;;4974779;28;20054;-81
2023/11/16 11:36:08;;;;;;;0.77;0.50;;;13.70;90.80;;;;;;4962225;28;20099;-81
2023/11/16 11:38:38;;;;;;;1.02;0.52;;;13.70;90.80;;;;;;4979358;28;20030;-81
2023/11/16 11:41:09;;;;;;;1.23;0.52;;;13.70;90.90;;;;;;4962140;28;20029;-81
2023/11/16 11:43:38;;;;;;;1.27;0.60;;;13.70;90.90;;;;;;4962197;28;20027;-82
2023/11/16 11:46:17;;;;;;;1.27;0.50;;;13.70;90.90;;;;;;4962118;28;20058;-81
2023/11/16 11:48:44;;;;;;;0.77;0.60;;;13.70;90.90;;;;;;4961898;28;20034;-81
2023/11/16 11:51:14;;;;;;;1.17;0.57;;;13.70;90.90;;;;;;4961697;28;20066;-81
2023/11/16 11:53:40;;;;;;;1.10;0.70;;;13.70;90.90;;;;;;4974043;28;20472;-82
2023/11/16 11:56:07;;;;;;;0.90;0.40;;;13.70;90.90;;;;;;4999009;28;20041;-81
2023/11/16 11:58:37;;;;;;;0.80;0.52;;;13.70;90.90;;;;;;4981002;28;20034;-81
2023/11/16 12:01:04;;;;;;;0.68;0.43;;;13.60;90.90;;;;;;4980914;28;20486;-81
2023/11/16 12:03:29;;;;;;;0.90;0.45;;;13.70;90.90;;;;;;4980685;28;20027;-80
2023/11/16 12:06:02;;;;;;;0.95;0.40;;;13.60;90.90;;;;;;4998890;28;20523;-81
2023/11/16 12:08:40;;;;;;;1.25;0.65;;;13.60;91.00;;;;;;4980642;28;20019;-81
2023/11/16 12:11:09;;;;;;;0.80;0.60;;;13.70;90.90;;;;;;4980717;28;20041;-81
2023/11/16 12:13:36;;;;;;;1.40;0.60;;;13.70;90.90;;;;;;4980696;28;20400;-81
2023/11/16 12:16:06;;;;;;;1.25;0.60;;;13.70;90.90;;;;;;4997913;28;20034;-82
2023/11/16 12:18:33;;;;;;;0.25;0.25;;;13.80;90.80;;;;;;4980486;28;20052;-81
2023/11/16 12:20:59;;;;;;;0.85;0.40;;;13.80;91.00;;;;;;4998203;28;20023;-82
2023/11/16 12:23:26;;;;;;;1.02;0.47;;;13.80;90.70;;;;;;4980911;28;20121;-81
2023/11/16 12:25:52;;;;;;;1.40;0.60;;;13.80;90.70;;;;;;4980671;28;20025;-81
2023/11/16 12:28:23;;;;;;;0.90;0.63;;;13.80;90.60;;;;;;4997755;28;20038;-81
2023/11/16 12:30:49;;;;;;;0.87;0.67;;;13.80;90.60;;;;;;4980681;28;20030;-81
2023/11/16 12:33:15;;;;;;;1.15;0.57;;;13.80;90.60;;;;;;4980803;28;20304;-81
2023/11/16 12:35:41;;;;;;;0.75;0.50;;;13.80;90.70;;;;;;4980951;28;20034;-81
2023/11/16 12:38:07;;;;;;;0.50;0.50;;;13.70;90.70;;;;;;4980112;28;20026;-81
2023/11/16 12:40:34;;;;;;;1.08;0.60;;;13.70;90.70;;;;;;4980684;28;20707;-81
2023/11/16 12:43:03;;;;;;;1.13;0.70;;;13.70;90.80;;;;;;4980354;28;20556;-82
2023/11/16 12:45:30;;;;;;;1.55;0.60;;;13.70;90.80;;;;;;4997580;28;20405;-80
2023/11/16 12:47:57;;;;;;;0.47;0.45;;;13.70;90.90;;;;;;4979942;28;20022;-81
2023/11/16 12:50:22;;;;;;;1.10;0.50;;;13.70;90.90;;;;;;4980445;28;20593;-82
2023/11/16 12:52:48;;;;;;;1.05;0.60;;;13.60;90.90;;;;;;4980197;28;20066;-82
2023/11/16 12:55:13;;;;;;;0.90;0.50;;;13.70;90.90;;;;;;4997546;28;20033;-82
2023/11/16 12:57:46;;;;;;;0.60;0.30;;;13.60;90.90;;;;;;4997762;28;20110;-81
2023/11/16 13:00:12;;;;;;;1.30;0.50;;;13.60;91.00;;;;;;4980037;28;20108;-82
2023/11/16 13:02:38;;;;;;;1.02;0.50;;;13.60;91.00;;;;;;4997358;28;20492;-82
2023/11/16 13:05:08;;;;;;;0.73;0.40;;;13.60;91.00;;;;;;4979876;28;20049;-82
2023/11/16 13:07:38;;;;;;;0.70;0.60;;;13.60;91.00;;;;;;4979862;28;20030;-81
2023/11/16 13:10:04;;;;;;;1.42;0.60;;;13.60;91.00;;;;;;4980260;28;20022;-82
2023/11/16 13:12:30;;;;;;;0.60;0.50;;;13.60;91.00;;;;;;4979584;28;20124;-81
2023/11/16 13:14:56;;;;;;;0.88;0.52;;;13.60;91.10;;;;;;4997167;28;20112;-81
2023/11/16 13:17:21;;;;;;;0.60;0.40;;;13.60;91.10;;;;;;4996971;28;20088;-82
2023/11/16 13:19:47;;;;;;;1.17;0.65;;;13.60;91.10;;;;;;4979220;28;20057;-81
2023/11/16 13:22:13;;;;;;;0.52;0.40;;;13.60;91.10;;;;;;4979355;28;20401;-81
2023/11/16 13:24:41;;;;;;;1.45;0.60;;;13.60;91.10;;;;;;4979163;28;20026;-81
2023/11/16 13:27:07;;;;;;;1.35;0.43;;;13.60;91.10;;;;;;4979246;28;20018;-82
2023/11/16 13:29:33;;;;;;;0.60;0.40;;;13.50;91.10;;;;;;4979684;28;20041;-82
2023/11/16 13:31:59;;;;;;;0.40;0.40;;;13.60;91.10;;;;;;4996987;28;20030;-81
2023/11/16 13:34:24;;;;;;;0.88;0.52;;;13.50;91.10;;;;;;4979441;28;20065;-81
2023/11/16 13:36:51;;;;;;;0.73;0.45;;;13.60;91.10;;;;;;4979158;28;20065;-81
2023/11/16 13:39:16;;;;;;;0.40;0.40;;;13.60;91.20;;;;;;4996247;28;20030;-81
2023/11/16 13:41:43;;;;;;;0.85;0.50;;;13.50;91.10;;;;;;4979030;28;20106;-82
2023/11/16 13:44:09;;;;;;;0.70;0.50;;;13.50;91.10;;;;;;4979554;28;20022;-81
2023/11/16 13:46:36;;;;;;;0.82;0.40;;;13.60;91.10;;;;;;4978652;28;20026;-82